sensor_id;sensor_type;location;lat;lon;timestamp;pressure;altitude;pressure_sealevel;temperature;humidity
50302;BME280;36550;50.472;19.744;2023-04-20T00:00:56;98260.02;;;7.85;89.47
50302;BME280;36550;50.472;19.744;2023-04-20T00:03:40;98256.59;;;7.82;89.45
50302;BME280;36550;50.472;19.744;2023-04-20T00:06:25;98259.09;;;7.79;89.51
50302;BME280;36550;50.472;19.744;2023-04-20T00:09:13;98253.48;;;7.77;89.60
50302;BME280;36550;50.472;19.744;2023-04-20T00:11:57;98251.48;;;7.75;89.52
50302;BME280;36550;50.472;19.744;2023-04-20T00:14:41;98248.64;;;7.70;89.35
50302;BME280;36550;50.472;19.744;2023-04-20T00:17:25;98252.41;;;7.66;89.33
50302;BME280;36550;50.472;19.744;2023-04-20T00:20:10;98250.39;;;7.59;89.22
50302;BME280;36550;50.472;19.744;2023-04-20T00:22:55;98247.27;;;7.51;89.33
50302;BME280;36550;50.472;19.744;2023-04-20T00:25:39;98246.73;;;7.46;89.49
50302;BME280;36550;50.472;19.744;2023-04-20T00:28:23;98247.41;;;7.43;89.35
50302;BME280;36550;50.472;19.744;2023-04-20T00:31:07;98244.73;;;7.41;89.29
50302;BME280;36550;50.472;19.744;2023-04-20T00:33:51;98242.17;;;7.40;89.43
50302;BME280;36550;50.472;19.744;2023-04-20T00:36:35;98240.59;;;7.41;89.41
50302;BME280;36550;50.472;19.744;2023-04-20T00:39:19;98239.59;;;7.43;89.55
50302;BME280;36550;50.472;19.744;2023-04-20T00:42:05;98236.67;;;7.45;89.64
50302;BME280;36550;50.472;19.744;2023-04-20T00:44:49;98237.61;;;7.46;89.69
50302;BME280;36550;50.472;19.744;2023-04-20T00:47:34;98237.69;;;7.46;89.78
50302;BME280;36550;50.472;19.744;2023-04-20T00:50:18;98238.43;;;7.49;89.81
50302;BME280;36550;50.472;19.744;2023-04-20T00:53:02;98240.81;;;7.56;89.99
50302;BME280;36550;50.472;19.744;2023-04-20T00:55:47;98242.98;;;7.62;90.06
50302;BME280;36550;50.472;19.744;2023-04-20T00:58:32;98240.01;;;7.65;90.15
50302;BME280;36550;50.472;19.744;2023-04-20T01:01:16;98241.32;;;7.66;90.18
50302;BME280;36550;50.472;19.744;2023-04-20T01:04:00;98237.95;;;7.66;90.07
50302;BME280;36550;50.472;19.744;2023-04-20T01:06:44;98240.05;;;7.64;90.13
50302;BME280;36550;50.472;19.744;2023-04-20T01:09:28;98242.86;;;7.61;90.23
50302;BME280;36550;50.472;19.744;2023-04-20T01:12:12;98244.00;;;7.61;90.15
50302;BME280;36550;50.472;19.744;2023-04-20T01:14:56;98242.98;;;7.63;90.15
50302;BME280;36550;50.472;19.744;2023-04-20T01:17:40;98243.48;;;7.66;90.12
50302;BME280;36550;50.472;19.744;2023-04-20T01:20:26;98241.61;;;7.67;90.01
50302;BME280;36550;50.472;19.744;2023-04-20T01:23:10;98236.63;;;7.70;90.11
50302;BME280;36550;50.472;19.744;2023-04-20T01:25:54;98233.80;;;7.73;90.15
50302;BME280;36550;50.472;19.744;2023-04-20T01:28:38;98233.51;;;7.77;90.10
50302;BME280;36550;50.472;19.744;2023-04-20T01:31:23;98235.56;;;7.77;90.10
50302;BME280;36550;50.472;19.744;2023-04-20T01:34:07;98234.42;;;7.76;90.23
50302;BME280;36550;50.472;19.744;2023-04-20T01:36:51;98230.45;;;7.75;90.14
50302;BME280;36550;50.472;19.744;2023-04-20T01:39:38;98228.90;;;7.73;90.06
50302;BME280;36550;50.472;19.744;2023-04-20T01:42:23;98230.39;;;7.74;90.04
50302;BME280;36550;50.472;19.744;2023-04-20T01:45:07;98232.11;;;7.75;89.92
50302;BME280;36550;50.472;19.744;2023-04-20T01:47:51;98232.47;;;7.75;89.93
50302;BME280;36550;50.472;19.744;2023-04-20T01:50:35;98231.13;;;7.69;89.70
50302;BME280;36550;50.472;19.744;2023-04-20T01:53:19;98232.44;;;7.60;89.58
50302;BME280;36550;50.472;19.744;2023-04-20T01:56:03;98231.46;;;7.55;89.61
50302;BME280;36550;50.472;19.744;2023-04-20T01:58:47;98232.88;;;7.53;89.84
50302;BME280;36550;50.472;19.744;2023-04-20T02:01:32;98237.70;;;7.54;90.05
50302;BME280;36550;50.472;19.744;2023-04-20T02:04:16;98237.42;;;7.49;90.27
50302;BME280;36550;50.472;19.744;2023-04-20T02:07:00;98239.66;;;7.44;90.22
50302;BME280;36550;50.472;19.744;2023-04-20T02:09:43;98239.56;;;7.41;90.31
50302;BME280;36550;50.472;19.744;2023-04-20T02:12:27;98237.91;;;7.40;90.48
50302;BME280;36550;50.472;19.744;2023-04-20T02:15:11;98238.02;;;7.42;90.64
50302;BME280;36550;50.472;19.744;2023-04-20T02:17:55;98235.48;;;7.43;90.94
50302;BME280;36550;50.472;19.744;2023-04-20T02:20:40;98232.56;;;7.41;90.66
50302;BME280;36550;50.472;19.744;2023-04-20T02:23:25;98235.46;;;7.39;90.89
50302;BME280;36550;50.472;19.744;2023-04-20T02:26:09;98237.16;;;7.38;90.95
50302;BME280;36550;50.472;19.744;2023-04-20T02:28:53;98236.16;;;7.37;91.41
50302;BME280;36550;50.472;19.744;2023-04-20T02:31:36;98241.19;;;7.37;91.36
50302;BME280;36550;50.472;19.744;2023-04-20T02:34:20;98238.56;;;7.38;91.35
50302;BME280;36550;50.472;19.744;2023-04-20T02:37:04;98236.90;;;7.41;91.25
50302;BME280;36550;50.472;19.744;2023-04-20T02:39:49;98240.94;;;7.45;91.12
50302;BME280;36550;50.472;19.744;2023-04-20T02:42:32;98239.40;;;7.48;91.41
50302;BME280;36550;50.472;19.744;2023-04-20T02:45:16;98241.96;;;7.50;91.49
50302;BME280;36550;50.472;19.744;2023-04-20T02:48:00;98244.23;;;7.49;91.43
50302;BME280;36550;50.472;19.744;2023-04-20T02:50:44;98248.55;;;7.50;91.35
50302;BME280;36550;50.472;19.744;2023-04-20T02:53:28;98248.40;;;7.50;91.42
50302;BME280;36550;50.472;19.744;2023-04-20T02:56:12;98244.77;;;7.50;91.38
50302;BME280;36550;50.472;19.744;2023-04-20T02:58:56;98246.09;;;7.50;91.31
50302;BME280;36550;50.472;19.744;2023-04-20T03:01:40;98241.52;;;7.52;91.26
50302;BME280;36550;50.472;19.744;2023-04-20T03:04:23;98236.13;;;7.55;91.35
50302;BME280;36550;50.472;19.744;2023-04-20T03:07:09;98238.20;;;7.58;91.27
50302;BME280;36550;50.472;19.744;2023-04-20T03:09:52;98242.29;;;7.58;91.31
50302;BME280;36550;50.472;19.744;2023-04-20T03:12:36;98238.88;;;7.57;91.26
50302;BME280;36550;50.472;19.744;2023-04-20T03:15:20;98238.05;;;7.56;91.16
50302;BME280;36550;50.472;19.744;2023-04-20T03:18:04;98241.20;;;7.56;91.07
50302;BME280;36550;50.472;19.744;2023-04-20T03:20:48;98241.90;;;7.56;91.23
50302;BME280;36550;50.472;19.744;2023-04-20T03:23:32;98242.44;;;7.55;91.29
50302;BME280;36550;50.472;19.744;2023-04-20T03:26:16;98239.38;;;7.52;91.44
50302;BME280;36550;50.472;19.744;2023-04-20T03:29:01;98240.84;;;7.52;91.46
50302;BME280;36550;50.472;19.744;2023-04-20T03:31:45;98242.20;;;7.52;91.50
50302;BME280;36550;50.472;19.744;2023-04-20T03:34:29;98244.17;;;7.48;91.55
50302;BME280;36550;50.472;19.744;2023-04-20T03:37:13;98244.00;;;7.44;91.60
50302;BME280;36550;50.472;19.744;2023-04-20T03:39:57;98244.36;;;7.45;91.49
50302;BME280;36550;50.472;19.744;2023-04-20T03:42:41;98250.81;;;7.48;91.37
50302;BME280;36550;50.472;19.744;2023-04-20T03:45:25;98252.24;;;7.49;91.56
50302;BME280;36550;50.472;19.744;2023-04-20T03:48:09;98254.45;;;7.49;91.56
50302;BME280;36550;50.472;19.744;2023-04-20T03:50:54;98253.17;;;7.50;91.90
50302;BME280;36550;50.472;19.744;2023-04-20T03:53:38;98252.77;;;7.53;91.90
50302;BME280;36550;50.472;19.744;2023-04-20T03:56:22;98251.54;;;7.57;91.69
50302;BME280;36550;50.472;19.744;2023-04-20T03:59:06;98255.81;;;7.62;91.71
50302;BME280;36550;50.472;19.744;2023-04-20T04:01:50;98255.81;;;7.69;91.78
50302;BME280;36550;50.472;19.744;2023-04-20T04:04:34;98258.96;;;7.72;91.60
50302;BME280;36550;50.472;19.744;2023-04-20T04:07:18;98255.16;;;7.79;91.79
50302;BME280;36550;50.472;19.744;2023-04-20T04:10:02;98260.39;;;7.85;91.84
50302;BME280;36550;50.472;19.744;2023-04-20T04:12:48;98263.70;;;7.89;91.66
50302;BME280;36550;50.472;19.744;2023-04-20T04:15:32;98263.66;;;7.89;91.56
50302;BME280;36550;50.472;19.744;2023-04-20T04:18:16;98260.38;;;7.86;91.39
50302;BME280;36550;50.472;19.744;2023-04-20T04:20:59;98260.15;;;7.89;91.36
50302;BME280;36550;50.472;19.744;2023-04-20T04:23:43;98260.05;;;7.95;91.48
50302;BME280;36550;50.472;19.744;2023-04-20T04:26:28;98264.28;;;7.97;91.40
50302;BME280;36550;50.472;19.744;2023-04-20T04:29:12;98263.08;;;7.99;91.30
50302;BME280;36550;50.472;19.744;2023-04-20T04:31:56;98261.95;;;8.00;91.38
50302;BME280;36550;50.472;19.744;2023-04-20T04:34:41;98263.88;;;8.05;91.22
50302;BME280;36550;50.472;19.744;2023-04-20T04:37:28;98267.80;;;8.14;91.14
50302;BME280;36550;50.472;19.744;2023-04-20T04:40:11;98270.00;;;8.20;91.21
50302;BME280;36550;50.472;19.744;2023-04-20T04:42:56;98268.67;;;8.26;91.04
50302;BME280;36550;50.472;19.744;2023-04-20T04:45:41;98271.74;;;8.30;90.97
50302;BME280;36550;50.472;19.744;2023-04-20T04:48:25;98277.66;;;8.32;90.83
50302;BME280;36550;50.472;19.744;2023-04-20T04:51:08;98280.76;;;8.31;90.70
50302;BME280;36550;50.472;19.744;2023-04-20T04:53:53;98280.98;;;8.32;90.65
50302;BME280;36550;50.472;19.744;2023-04-20T04:56:36;98287.95;;;8.37;90.61
50302;BME280;36550;50.472;19.744;2023-04-20T04:59:20;98290.06;;;8.42;90.68
50302;BME280;36550;50.472;19.744;2023-04-20T05:02:04;98293.12;;;8.47;90.61
50302;BME280;36550;50.472;19.744;2023-04-20T05:04:49;98296.89;;;8.54;90.59
50302;BME280;36550;50.472;19.744;2023-04-20T05:07:33;98293.63;;;8.60;90.56
50302;BME280;36550;50.472;19.744;2023-04-20T05:10:17;98293.46;;;8.65;90.37
50302;BME280;36550;50.472;19.744;2023-04-20T05:13:01;98295.11;;;8.70;90.33
50302;BME280;36550;50.472;19.744;2023-04-20T05:15:45;98297.81;;;8.76;90.16
50302;BME280;36550;50.472;19.744;2023-04-20T05:18:29;98303.47;;;8.82;90.08
50302;BME280;36550;50.472;19.744;2023-04-20T05:21:13;98305.69;;;8.82;89.65
50302;BME280;36550;50.472;19.744;2023-04-20T05:23:57;98307.16;;;8.78;89.49
50302;BME280;36550;50.472;19.744;2023-04-20T05:26:41;98306.92;;;8.74;89.42
50302;BME280;36550;50.472;19.744;2023-04-20T05:29:25;98305.55;;;8.74;89.61
50302;BME280;36550;50.472;19.744;2023-04-20T05:32:09;98307.58;;;8.77;89.73
50302;BME280;36550;50.472;19.744;2023-04-20T05:34:52;98310.86;;;8.78;89.61
50302;BME280;36550;50.472;19.744;2023-04-20T05:37:36;98311.13;;;8.81;89.46
50302;BME280;36550;50.472;19.744;2023-04-20T05:40:20;98310.42;;;8.86;89.70
50302;BME280;36550;50.472;19.744;2023-04-20T05:43:04;98311.81;;;8.89;89.53
50302;BME280;36550;50.472;19.744;2023-04-20T05:45:48;98309.36;;;8.93;89.43
50302;BME280;36550;50.472;19.744;2023-04-20T05:48:32;98310.59;;;9.00;89.52
50302;BME280;36550;50.472;19.744;2023-04-20T05:51:17;98314.13;;;9.08;89.70
50302;BME280;36550;50.472;19.744;2023-04-20T05:54:01;98314.98;;;9.20;89.47
50302;BME280;36550;50.472;19.744;2023-04-20T05:56:45;98315.83;;;9.31;89.27
50302;BME280;36550;50.472;19.744;2023-04-20T05:59:29;98317.77;;;9.40;88.71
50302;BME280;36550;50.472;19.744;2023-04-20T06:02:13;98321.77;;;9.51;88.90
50302;BME280;36550;50.472;19.744;2023-04-20T06:04:57;98321.67;;;9.62;89.10
50302;BME280;36550;50.472;19.744;2023-04-20T06:07:41;98325.00;;;9.74;89.11
50302;BME280;36550;50.472;19.744;2023-04-20T06:10:25;98328.58;;;9.85;88.68
50302;BME280;36550;50.472;19.744;2023-04-20T06:13:10;98328.81;;;9.90;87.97
50302;BME280;36550;50.472;19.744;2023-04-20T06:15:54;98329.11;;;9.97;87.57
50302;BME280;36550;50.472;19.744;2023-04-20T06:18:38;98328.42;;;10.13;86.77
50302;BME280;36550;50.472;19.744;2023-04-20T06:21:22;98325.50;;;10.25;86.41
50302;BME280;36550;50.472;19.744;2023-04-20T06:24:07;98323.33;;;10.30;85.64
50302;BME280;36550;50.472;19.744;2023-04-20T06:26:51;98324.02;;;10.33;85.29
50302;BME280;36550;50.472;19.744;2023-04-20T06:29:35;98326.65;;;10.47;85.34
50302;BME280;36550;50.472;19.744;2023-04-20T06:32:19;98322.63;;;10.67;85.43
50302;BME280;36550;50.472;19.744;2023-04-20T06:35:07;98320.55;;;10.87;85.33
50302;BME280;36550;50.472;19.744;2023-04-20T06:37:51;98316.92;;;11.01;84.76
50302;BME280;36550;50.472;19.744;2023-04-20T06:40:35;98318.82;;;11.17;84.69
50302;BME280;36550;50.472;19.744;2023-04-20T06:43:19;98322.68;;;11.22;82.80
50302;BME280;36550;50.472;19.744;2023-04-20T06:46:03;98324.50;;;11.33;83.04
50302;BME280;36550;50.472;19.744;2023-04-20T06:48:47;98324.06;;;11.45;82.61
50302;BME280;36550;50.472;19.744;2023-04-20T06:51:31;98321.95;;;11.57;82.40
50302;BME280;36550;50.472;19.744;2023-04-20T06:54:15;98321.39;;;11.62;82.01
50302;BME280;36550;50.472;19.744;2023-04-20T06:56:59;98325.27;;;11.69;82.06
50302;BME280;36550;50.472;19.744;2023-04-20T06:59:43;98324.91;;;11.78;82.43
50302;BME280;36550;50.472;19.744;2023-04-20T07:02:27;98322.69;;;11.90;82.72
50302;BME280;36550;50.472;19.744;2023-04-20T07:05:12;98324.60;;;12.05;82.03
50302;BME280;36550;50.472;19.744;2023-04-20T07:07:56;98328.18;;;12.14;81.42
50302;BME280;36550;50.472;19.744;2023-04-20T07:10:40;98328.77;;;12.27;81.18
50302;BME280;36550;50.472;19.744;2023-04-20T07:13:24;98334.61;;;12.36;81.05
50302;BME280;36550;50.472;19.744;2023-04-20T07:16:08;98333.02;;;12.51;81.76
50302;BME280;36550;50.472;19.744;2023-04-20T07:18:53;98336.46;;;12.66;81.92
50302;BME280;36550;50.472;19.744;2023-04-20T07:21:37;98337.48;;;12.81;81.65
50302;BME280;36550;50.472;19.744;2023-04-20T07:24:21;98340.85;;;12.98;81.56
50302;BME280;36550;50.472;19.744;2023-04-20T07:27:04;98340.06;;;13.22;81.58
50302;BME280;36550;50.472;19.744;2023-04-20T07:29:50;98343.70;;;13.43;81.14
50302;BME280;36550;50.472;19.744;2023-04-20T07:32:35;98346.94;;;13.62;81.08
50302;BME280;36550;50.472;19.744;2023-04-20T07:35:19;98346.06;;;13.67;78.50
50302;BME280;36550;50.472;19.744;2023-04-20T07:38:03;98347.42;;;13.76;79.19
50302;BME280;36550;50.472;19.744;2023-04-20T07:40:47;98346.55;;;13.93;79.42
50302;BME280;36550;50.472;19.744;2023-04-20T07:43:31;98344.98;;;14.05;77.88
50302;BME280;36550;50.472;19.744;2023-04-20T07:46:22;98344.30;;;14.05;76.64
50302;BME280;36550;50.472;19.744;2023-04-20T07:49:06;98340.89;;;14.24;77.48
50302;BME280;36550;50.472;19.744;2023-04-20T07:51:50;98340.52;;;14.49;75.74
50302;BME280;36550;50.472;19.744;2023-04-20T07:54:34;98337.09;;;14.70;75.56
50302;BME280;36550;50.472;19.744;2023-04-20T07:57:19;98336.73;;;14.87;75.21
50302;BME280;36550;50.472;19.744;2023-04-20T08:00:04;98345.32;;;15.15;75.19
50302;BME280;36550;50.472;19.744;2023-04-20T08:02:49;98341.59;;;15.42;75.19
50302;BME280;36550;50.472;19.744;2023-04-20T08:05:36;98341.72;;;15.58;74.49
50302;BME280;36550;50.472;19.744;2023-04-20T08:08:20;98349.16;;;15.67;74.22
50302;BME280;36550;50.472;19.744;2023-04-20T08:11:04;98349.27;;;15.77;74.46
50302;BME280;36550;50.472;19.744;2023-04-20T08:13:50;98347.73;;;15.93;74.55
50302;BME280;36550;50.472;19.744;2023-04-20T08:16:34;98347.41;;;16.03;72.45
50302;BME280;36550;50.472;19.744;2023-04-20T08:19:18;98350.61;;;15.93;70.76
50302;BME280;36550;50.472;19.744;2023-04-20T08:22:04;98348.30;;;15.73;70.61
50302;BME280;36550;50.472;19.744;2023-04-20T08:24:48;98349.25;;;15.63;70.82
50302;BME280;36550;50.472;19.744;2023-04-20T08:27:32;98347.90;;;15.70;71.96
50302;BME280;36550;50.472;19.744;2023-04-20T08:30:16;98350.71;;;15.81;71.95
50302;BME280;36550;50.472;19.744;2023-04-20T08:33:01;98356.79;;;15.87;70.97
50302;BME280;36550;50.472;19.744;2023-04-20T08:35:45;98355.20;;;15.89;70.02
50302;BME280;36550;50.472;19.744;2023-04-20T08:38:29;98358.60;;;15.94;69.84
50302;BME280;36550;50.472;19.744;2023-04-20T08:41:13;98359.38;;;16.01;69.04
50302;BME280;36550;50.472;19.744;2023-04-20T08:43:58;98361.06;;;16.03;68.53
50302;BME280;36550;50.472;19.744;2023-04-20T08:46:45;98363.50;;;16.07;69.06
50302;BME280;36550;50.472;19.744;2023-04-20T08:49:30;98366.53;;;16.08;68.72
50302;BME280;36550;50.472;19.744;2023-04-20T08:52:15;98364.28;;;15.97;67.73
50302;BME280;36550;50.472;19.744;2023-04-20T08:54:59;98366.30;;;15.83;68.35
50302;BME280;36550;50.472;19.744;2023-04-20T08:57:44;98368.52;;;15.66;67.96
50302;BME280;36550;50.472;19.744;2023-04-20T09:00:28;98370.39;;;15.54;68.28
50302;BME280;36550;50.472;19.744;2023-04-20T09:03:12;98372.58;;;15.49;68.44
50302;BME280;36550;50.472;19.744;2023-04-20T09:05:55;98371.35;;;15.55;68.53
50302;BME280;36550;50.472;19.744;2023-04-20T09:08:41;98368.16;;;15.69;68.51
50302;BME280;36550;50.472;19.744;2023-04-20T09:11:27;98369.23;;;15.78;68.32
50302;BME280;36550;50.472;19.744;2023-04-20T09:14:14;98368.19;;;15.92;68.47
50302;BME280;36550;50.472;19.744;2023-04-20T09:17:01;98364.25;;;16.10;68.33
50302;BME280;36550;50.472;19.744;2023-04-20T09:19:52;98364.93;;;16.30;68.26
50302;BME280;36550;50.472;19.744;2023-04-20T09:22:36;98374.17;;;16.54;67.63
50302;BME280;36550;50.472;19.744;2023-04-20T09:25:21;98369.42;;;16.65;67.57
50302;BME280;36550;50.472;19.744;2023-04-20T09:28:06;98375.77;;;16.66;67.13
50302;BME280;36550;50.472;19.744;2023-04-20T09:30:50;98374.66;;;16.53;67.17
50302;BME280;36550;50.472;19.744;2023-04-20T09:33:34;98372.40;;;16.29;66.83
50302;BME280;36550;50.472;19.744;2023-04-20T09:36:20;98372.58;;;15.95;67.09
50302;BME280;36550;50.472;19.744;2023-04-20T09:39:21;98381.23;;;15.55;66.35
50302;BME280;36550;50.472;19.744;2023-04-20T09:42:10;98384.66;;;15.01;67.05
50302;BME280;36550;50.472;19.744;2023-04-20T09:44:54;98387.48;;;14.63;67.76
50302;BME280;36550;50.472;19.744;2023-04-20T09:47:40;98388.71;;;14.38;68.71
50302;BME280;36550;50.472;19.744;2023-04-20T09:50:25;98385.39;;;14.23;69.15
50302;BME280;36550;50.472;19.744;2023-04-20T09:53:10;98384.09;;;14.09;68.95
50302;BME280;36550;50.472;19.744;2023-04-20T09:55:54;98383.42;;;14.02;69.39
50302;BME280;36550;50.472;19.744;2023-04-20T09:58:39;98383.32;;;13.96;69.85
50302;BME280;36550;50.472;19.744;2023-04-20T10:01:23;98380.59;;;13.92;70.41
50302;BME280;36550;50.472;19.744;2023-04-20T10:04:08;98383.27;;;13.82;70.10
50302;BME280;36550;50.472;19.744;2023-04-20T10:06:56;98387.30;;;13.80;70.64
50302;BME280;36550;50.472;19.744;2023-04-20T10:09:46;98384.40;;;13.85;70.75
50302;BME280;36550;50.472;19.744;2023-04-20T10:12:30;98385.31;;;13.90;70.81
50302;BME280;36550;50.472;19.744;2023-04-20T10:15:15;98378.81;;;13.95;70.91
50302;BME280;36550;50.472;19.744;2023-04-20T10:17:59;98372.02;;;13.95;71.08
50302;BME280;36550;50.472;19.744;2023-04-20T10:20:43;98365.84;;;13.96;71.35
50302;BME280;36550;50.472;19.744;2023-04-20T10:23:26;98363.05;;;13.92;71.22
50302;BME280;36550;50.472;19.744;2023-04-20T10:26:11;98368.58;;;13.90;71.15
50302;BME280;36550;50.472;19.744;2023-04-20T10:28:54;98376.65;;;13.86;71.09
50302;BME280;36550;50.472;19.744;2023-04-20T10:31:39;98375.52;;;13.80;70.98
50302;BME280;36550;50.472;19.744;2023-04-20T10:34:30;98376.35;;;13.74;70.84
50302;BME280;36550;50.472;19.744;2023-04-20T10:37:14;98379.69;;;13.70;70.70
50302;BME280;36550;50.472;19.744;2023-04-20T10:40:00;98374.04;;;13.71;70.85
50302;BME280;36550;50.472;19.744;2023-04-20T10:42:44;98374.02;;;13.77;70.86
50302;BME280;36550;50.472;19.744;2023-04-20T10:45:35;98375.82;;;13.87;70.66
50302;BME280;36550;50.472;19.744;2023-04-20T10:48:21;98371.85;;;13.95;70.76
50302;BME280;36550;50.472;19.744;2023-04-20T10:51:08;98373.01;;;14.09;70.74
50302;BME280;36550;50.472;19.744;2023-04-20T10:54:03;98373.26;;;14.29;70.24
50302;BME280;36550;50.472;19.744;2023-04-20T10:56:49;98374.50;;;14.58;70.04
50302;BME280;36550;50.472;19.744;2023-04-20T10:59:37;98372.55;;;14.91;70.29
50302;BME280;36550;50.472;19.744;2023-04-20T11:02:21;98372.35;;;15.20;69.23
50302;BME280;36550;50.472;19.744;2023-04-20T11:05:11;98372.38;;;15.40;68.76
50302;BME280;36550;50.472;19.744;2023-04-20T11:07:59;98374.11;;;15.50;67.63
50302;BME280;36550;50.472;19.744;2023-04-20T11:10:47;98365.18;;;15.52;67.02
50302;BME280;36550;50.472;19.744;2023-04-20T11:13:31;98368.02;;;15.49;66.26
50302;BME280;36550;50.472;19.744;2023-04-20T11:16:17;98368.20;;;15.64;67.40
50302;BME280;36550;50.472;19.744;2023-04-20T11:19:01;98364.83;;;15.69;66.92
50302;BME280;36550;50.472;19.744;2023-04-20T11:21:46;98363.20;;;15.69;66.87
50302;BME280;36550;50.472;19.744;2023-04-20T11:24:31;98361.52;;;15.63;66.81
50302;BME280;36550;50.472;19.744;2023-04-20T11:27:19;98360.13;;;15.57;66.70
50302;BME280;36550;50.472;19.744;2023-04-20T11:30:05;98352.42;;;15.49;67.05
50302;BME280;36550;50.472;19.744;2023-04-20T11:32:53;98363.27;;;15.40;66.56
50302;BME280;36550;50.472;19.744;2023-04-20T11:35:39;98363.16;;;15.28;66.41
50302;BME280;36550;50.472;19.744;2023-04-20T11:38:28;98364.42;;;15.29;67.13
50302;BME280;36550;50.472;19.744;2023-04-20T11:41:12;98362.13;;;15.42;67.21
50302;BME280;36550;50.472;19.744;2023-04-20T11:43:56;98358.80;;;15.58;67.31
50302;BME280;36550;50.472;19.744;2023-04-20T11:46:40;98360.97;;;15.78;67.55
50302;BME280;36550;50.472;19.744;2023-04-20T11:49:27;98356.58;;;15.91;67.42
50302;BME280;36550;50.472;19.744;2023-04-20T11:52:11;98357.54;;;15.94;67.12
50302;BME280;36550;50.472;19.744;2023-04-20T11:54:55;98353.77;;;15.87;67.12
50302;BME280;36550;50.472;19.744;2023-04-20T11:57:39;98352.61;;;15.75;67.06
50302;BME280;36550;50.472;19.744;2023-04-20T12:00:23;98347.61;;;15.60;67.07
50302;BME280;36550;50.472;19.744;2023-04-20T12:03:07;98345.59;;;15.46;67.55
50302;BME280;36550;50.472;19.744;2023-04-20T12:05:54;98351.70;;;15.32;67.52
50302;BME280;36550;50.472;19.744;2023-04-20T12:08:38;98343.59;;;15.17;67.51
50302;BME280;36550;50.472;19.744;2023-04-20T12:11:23;98344.23;;;15.01;67.09
50302;BME280;36550;50.472;19.744;2023-04-20T12:14:07;98342.67;;;14.88;67.38
50302;BME280;36550;50.472;19.744;2023-04-20T12:16:51;98339.48;;;14.79;67.77
50302;BME280;36550;50.472;19.744;2023-04-20T12:19:35;98339.75;;;14.66;66.65
50302;BME280;36550;50.472;19.744;2023-04-20T12:22:19;98343.09;;;14.56;67.37
50302;BME280;36550;50.472;19.744;2023-04-20T12:25:04;98337.69;;;14.50;67.42
50302;BME280;36550;50.472;19.744;2023-04-20T12:27:49;98337.80;;;14.42;67.37
50302;BME280;36550;50.472;19.744;2023-04-20T12:30:33;98335.62;;;14.36;67.24
50302;BME280;36550;50.472;19.744;2023-04-20T12:33:20;98330.30;;;14.32;67.72
50302;BME280;36550;50.472;19.744;2023-04-20T12:36:04;98328.22;;;14.30;68.14
50302;BME280;36550;50.472;19.744;2023-04-20T12:38:51;98330.04;;;14.25;66.50
50302;BME280;36550;50.472;19.744;2023-04-20T12:41:40;98322.46;;;14.29;67.67
50302;BME280;36550;50.472;19.744;2023-04-20T12:44:24;98319.89;;;14.31;67.15
50302;BME280;36550;50.472;19.744;2023-04-20T12:47:08;98318.02;;;14.29;66.53
50302;BME280;36550;50.472;19.744;2023-04-20T12:49:52;98317.51;;;14.30;66.95
50302;BME280;36550;50.472;19.744;2023-04-20T12:52:37;98313.11;;;14.34;67.50
50302;BME280;36550;50.472;19.744;2023-04-20T12:55:22;98311.30;;;14.39;66.43
50302;BME280;36550;50.472;19.744;2023-04-20T12:58:06;98309.73;;;14.46;66.91
50302;BME280;36550;50.472;19.744;2023-04-20T13:00:50;98308.45;;;14.56;66.94
50302;BME280;36550;50.472;19.744;2023-04-20T13:03:34;98303.34;;;14.71;66.20
50302;BME280;36550;50.472;19.744;2023-04-20T13:06:18;98299.88;;;15.00;66.24
50302;BME280;36550;50.472;19.744;2023-04-20T13:09:03;98297.92;;;15.34;66.18
50302;BME280;36550;50.472;19.744;2023-04-20T13:11:47;98296.13;;;15.63;66.37
50302;BME280;36550;50.472;19.744;2023-04-20T13:14:31;98292.02;;;15.77;65.59
50302;BME280;36550;50.472;19.744;2023-04-20T13:17:16;98289.92;;;15.88;65.42
50302;BME280;36550;50.472;19.744;2023-04-20T13:20:00;98289.21;;;16.01;64.87
50302;BME280;36550;50.472;19.744;2023-04-20T13:22:44;98289.34;;;16.17;63.93
50302;BME280;36550;50.472;19.744;2023-04-20T13:25:29;98288.45;;;16.36;63.35
50302;BME280;36550;50.472;19.744;2023-04-20T13:28:15;98285.26;;;16.54;63.36
50302;BME280;36550;50.472;19.744;2023-04-20T13:30:59;98287.68;;;16.73;63.26
50302;BME280;36550;50.472;19.744;2023-04-20T13:33:43;98286.30;;;16.92;62.77
50302;BME280;36550;50.472;19.744;2023-04-20T13:36:27;98286.52;;;17.07;61.43
50302;BME280;36550;50.472;19.744;2023-04-20T13:39:12;98284.45;;;17.22;62.12
50302;BME280;36550;50.472;19.744;2023-04-20T13:41:56;98285.10;;;17.38;61.20
50302;BME280;36550;50.472;19.744;2023-04-20T13:44:39;98288.68;;;17.41;59.87
50302;BME280;36550;50.472;19.744;2023-04-20T13:47:23;98283.73;;;17.45;60.45
50302;BME280;36550;50.472;19.744;2023-04-20T13:50:08;98282.16;;;17.53;60.56
50302;BME280;36550;50.472;19.744;2023-04-20T13:52:52;98282.23;;;17.62;60.19
50302;BME280;36550;50.472;19.744;2023-04-20T13:55:36;98283.16;;;17.66;58.79
50302;BME280;36550;50.472;19.744;2023-04-20T13:58:20;98281.02;;;17.71;58.72
50302;BME280;36550;50.472;19.744;2023-04-20T14:01:09;98278.27;;;17.76;59.14
50302;BME280;36550;50.472;19.744;2023-04-20T14:03:54;98271.61;;;17.81;57.16
50302;BME280;36550;50.472;19.744;2023-04-20T14:06:38;98273.88;;;17.87;57.65
50302;BME280;36550;50.472;19.744;2023-04-20T14:09:22;98275.33;;;17.95;58.27
50302;BME280;36550;50.472;19.744;2023-04-20T14:12:06;98277.45;;;18.02;58.21
50302;BME280;36550;50.472;19.744;2023-04-20T14:14:50;98278.09;;;18.03;56.61
50302;BME280;36550;50.472;19.744;2023-04-20T14:17:34;98280.34;;;17.99;57.27
50302;BME280;36550;50.472;19.744;2023-04-20T14:20:18;98280.62;;;17.98;57.52
50302;BME280;36550;50.472;19.744;2023-04-20T14:23:02;98279.08;;;17.97;56.30
50302;BME280;36550;50.472;19.744;2023-04-20T14:25:46;98275.69;;;17.95;56.95